Time;durP1;ratioP1;P1;durP2;ratioP2;P2;SDS_P1;SDS_P2;PMS_P1;PMS_P2;Temp;Humidity;BMP_temperature;BMP_pressure;BME280_temperature;BME280_humidity;BME280_pressure;Samples;Min_cycle;Max_cycle;Signal;HPM_P1;HPM_P2
2021/03/20 00:01:28;;;;;;;0.20;0.20;;;8.20;60.80;;;;;;21129184;28;20073;-77
2021/03/20 00:11:30;;;;;;;2.05;0.30;;;8.20;60.90;;;;;;21162151;28;20087;-77
2021/03/20 00:21:34;;;;;;;0.65;0.40;;;8.10;60.90;;;;;;21128278;28;20032;-78
2021/03/20 00:31:37;;;;;;;0.57;0.35;;;8.20;61.00;;;;;;21161753;28;20046;-77
2021/03/20 00:41:44;;;;;;;1.48;0.20;;;8.20;60.90;;;;;;21146580;28;20036;-77
2021/03/20 00:51:50;;;;;;;0.45;0.28;;;8.20;60.90;;;;;;21158628;28;20044;-77
2021/03/20 01:01:53;;;;;;;0.40;0.25;;;8.20;60.80;;;;;;21142799;28;20050;-77
2021/03/20 01:11:59;;;;;;;0.57;0.43;;;8.20;60.70;;;;;;21141537;28;20125;-76
2021/03/20 01:22:02;;;;;;;1.08;0.75;;;8.20;60.60;;;;;;21152529;28;20043;-77
2021/03/20 01:32:04;;;;;;;0.20;0.20;;;8.10;60.50;;;;;;21140734;28;20397;-77
2021/03/20 01:42:09;;;;;;;0.40;0.20;;;8.10;60.50;;;;;;21157813;28;20050;-76
2021/03/20 01:52:20;;;;;;;0.22;0.20;;;8.10;60.40;;;;;;21139602;28;20038;-77
2021/03/20 02:02:21;;;;;;;1.13;0.22;;;8.10;60.40;;;;;;21139315;28;20040;-76
2021/03/20 02:12:31;;;;;;;0.47;0.47;;;8.10;60.40;;;;;;21155326;28;20028;-77
2021/03/20 02:22:52;;;;;;;0.68;0.50;;;8.10;60.40;;;;;;21154496;28;20048;-77
2021/03/20 02:33:18;;;;;;;0.25;0.10;;;8.10;60.30;;;;;;21170500;28;20031;-78
2021/03/20 02:43:42;;;;;;;0.75;0.75;;;8.00;60.20;;;;;;21147254;28;20055;-77
2021/03/20 02:53:52;;;;;;;0.67;0.53;;;8.10;60.20;;;;;;21067051;28;20032;-77
2021/03/20 03:03:53;;;;;;;0.65;0.43;;;8.00;60.20;;;;;;21068000;28;20845;-77
2021/03/20 03:14:17;;;;;;;1.00;0.35;;;8.10;60.40;;;;;;21032822;28;20040;-78
2021/03/20 03:24:19;;;;;;;0.68;0.50;;;8.10;60.10;;;;;;21082793;28;20094;-78
2021/03/20 03:34:48;;;;;;;0.10;0.10;;;8.10;60.00;;;;;;21047983;28;20039;-77
2021/03/20 03:44:50;;;;;;;0.43;0.32;;;8.10;59.60;;;;;;21046787;28;20169;-77
2021/03/20 03:54:53;;;;;;;0.75;0.15;;;8.10;59.60;;;;;;21080112;28;20028;-78
2021/03/20 04:05:13;;;;;;;0.10;0.10;;;8.10;59.60;;;;;;21078620;28;20029;-77
2021/03/20 04:15:29;;;;;;;0.80;0.50;;;8.00;59.50;;;;;;21063032;28;20040;-78
2021/03/20 04:25:48;;;;;;;0.77;0.28;;;8.00;59.50;;;;;;21060415;28;20487;-79
2021/03/20 04:35:57;;;;;;;0.10;0.10;;;8.00;59.50;;;;;;21061510;28;20062;-77
2021/03/20 04:46:24;;;;;;;0.22;0.20;;;8.00;59.60;;;;;;21074973;28;20032;-79
2021/03/20 04:56:27;;;;;;;0.32;0.30;;;8.00;59.50;;;;;;21142513;28;20040;-78
2021/03/20 05:06:31;;;;;;;1.13;0.32;;;7.90;59.50;;;;;;21128089;28;20039;-78
2021/03/20 05:16:54;;;;;;;0.47;0.15;;;7.90;59.50;;;;;;21125525;28;20039;-79
2021/03/20 05:26:57;;;;;;;0.40;0.20;;;7.90;59.50;;;;;;21143378;28;20297;-80
2021/03/20 05:37:02;;;;;;;0.00;0.00;;;7.90;59.50;;;;;;21142523;28;20484;-79
2021/03/20 05:47:33;;;;;;;1.70;0.38;;;7.90;59.40;;;;;;21141903;28;20085;-80
2021/03/20 05:57:40;;;;;;;1.75;0.30;;;7.90;59.30;;;;;;21143592;28;20046;-80
2021/03/20 06:08:05;;;;;;;0.43;0.20;;;7.90;59.40;;;;;;21159835;28;20044;-81
2021/03/20 06:18:24;;;;;;;1.55;0.60;;;8.00;59.40;;;;;;21159860;28;20031;-79
2021/03/20 06:28:35;;;;;;;0.65;0.20;;;8.00;59.60;;;;;;21142262;28;20036;-81
2021/03/20 06:38:45;;;;;;;2.40;0.65;;;8.30;59.80;;;;;;21155351;28;20390;-76
2021/03/20 06:48:46;;;;;;;2.88;1.35;;;8.50;60.10;;;;;;21116845;28;20036;-77
2021/03/20 06:58:47;;;;;;;0.88;0.45;;;8.60;59.90;;;;;;21033652;28;20039;-75
2021/03/20 07:08:59;;;;;;;8.23;1.50;;;8.80;59.40;;;;;;21049331;28;20447;-76
2021/03/20 07:19:03;;;;;;;0.75;0.75;;;8.60;58.90;;;;;;21042214;28;20389;-76
2021/03/20 07:29:03;;;;;;;1.70;0.73;;;8.50;58.90;;;;;;21148434;28;20066;-78
2021/03/20 07:39:07;;;;;;;1.43;0.63;;;8.30;58.70;;;;;;21130399;28;20039;-74
2021/03/20 07:49:21;;;;;;;0.47;0.47;;;8.30;58.80;;;;;;21126602;28;20290;-74
2021/03/20 07:59:25;;;;;;;0.35;0.35;;;8.20;58.80;;;;;;21078647;28;20052;-74
2021/03/20 08:09:27;;;;;;;1.00;0.52;;;8.10;58.80;;;;;;21027734;28;20036;-71
2021/03/20 08:19:30;;;;;;;0.35;0.30;;;8.00;58.70;;;;;;21368516;22;20053;-73
2021/03/20 08:29:48;;;;;;;1.67;0.22;;;8.00;59.10;;;;;;20893304;28;20121;-73
2021/03/20 08:40:39;;;;;;;0.57;0.25;;;7.90;58.20;;;;;;20868533;28;20125;-72
2021/03/20 08:51:04;;;;;;;4.57;0.30;;;8.00;57.80;;;;;;20843210;28;20061;-73
2021/03/20 09:01:17;;;;;;;0.30;0.30;;;8.00;57.80;;;;;;20836000;28;20037;-75
2021/03/20 09:11:41;;;;;;;0.40;0.22;;;8.00;57.70;;;;;;20824791;28;20533;-74
2021/03/20 09:21:42;;;;;;;0.22;0.22;;;8.00;57.40;;;;;;20808301;28;20037;-75
2021/03/20 09:31:57;;;;;;;0.70;0.43;;;8.00;57.40;;;;;;20860989;28;20032;-76
2021/03/20 09:41:58;;;;;;;0.60;0.43;;;7.90;56.60;;;;;;20906267;28;20741;-78
2021/03/20 09:51:59;;;;;;;0.32;0.22;;;7.70;55.20;;;;;;20907254;28;20060;-76
2021/03/20 10:02:23;;;;;;;2.67;0.45;;;7.80;55.00;;;;;;20907895;28;20041;-76
2021/03/20 10:12:26;;;;;;;0.13;0.13;;;7.90;53.20;;;;;;20909507;28;20037;-77
2021/03/20 10:22:32;;;;;;;6.45;0.80;;;7.90;53.60;;;;;;20924139;28;20048;-78
2021/03/20 10:32:34;;;;;;;0.98;0.55;;;7.90;53.10;;;;;;20877850;28;20033;-81
2021/03/20 10:42:36;;;;;;;0.10;0.10;;;7.90;53.30;;;;;;20826716;28;20418;-83
2021/03/20 10:52:40;;;;;;;0.10;0.10;;;7.90;53.40;;;;;;20842668;28;20448;-76
2021/03/20 11:02:41;;;;;;;0.57;0.20;;;7.90;52.80;;;;;;20838042;28;20406;-75
2021/03/20 11:12:42;;;;;;;0.50;0.30;;;7.90;52.60;;;;;;20835754;28;20021;-76
2021/03/20 11:22:42;;;;;;;0.10;0.10;;;8.00;52.70;;;;;;20818881;28;20129;-73
2021/03/20 11:32:45;;;;;;;0.15;0.15;;;7.90;52.60;;;;;;20866013;28;20033;-76
2021/03/20 11:42:45;;;;;;;0.22;0.15;;;8.00;52.80;;;;;;20887495;28;20345;-76
2021/03/20 11:53:24;;;;;;;0.10;0.10;;;8.00;52.90;;;;;;20892595;28;20032;-74
2021/03/20 12:03:25;;;;;;;;;;;8.00;52.70;;;;;;20895154;28;20052;-74
2021/03/20 12:14:08;;;;;;;0.70;0.20;;;7.90;52.40;;;;;;20909407;28;19920;-74
2021/03/20 12:24:09;;;;;;;1.13;0.20;;;8.00;52.70;;;;;;20873372;28;20045;-73
2021/03/20 12:34:12;;;;;;;0.10;0.00;;;7.90;52.80;;;;;;20907414;28;20040;-74
2021/03/20 12:44:20;;;;;;;0.32;0.28;;;8.00;52.70;;;;;;20923598;28;20410;-72
2021/03/20 12:54:23;;;;;;;0.47;0.40;;;8.00;52.60;;;;;;20890768;28;20029;-73
2021/03/20 13:04:23;;;;;;;0.88;0.57;;;8.00;52.70;;;;;;20906775;28;20037;-74
2021/03/20 13:14:24;;;;;;;0.20;0.10;;;8.00;52.60;;;;;;20906163;28;20033;-72
2021/03/20 13:24:25;;;;;;;0.10;0.10;;;8.00;52.60;;;;;;20887897;28;20053;-72
2021/03/20 13:34:26;;;;;;;1.00;0.45;;;8.00;52.50;;;;;;20921595;28;20044;-73
2021/03/20 13:44:27;;;;;;;0.10;0.10;;;8.00;52.30;;;;;;20835190;28;20137;-73
2021/03/20 13:54:27;;;;;;;0.88;0.17;;;8.00;52.30;;;;;;20838502;28;20571;-72
2021/03/20 14:04:29;;;;;;;1.17;0.30;;;8.10;52.20;;;;;;20914527;28;20102;-76
2021/03/20 14:14:30;;;;;;;0.20;0.10;;;8.10;52.10;;;;;;20903216;28;20040;-74
2021/03/20 14:24:31;;;;;;;0.10;0.10;;;8.00;52.10;;;;;;20902283;28;20037;-75
2021/03/20 14:34:32;;;;;;;0.25;0.15;;;8.00;52.00;;;;;;20900915;28;20033;-73
2021/03/20 14:44:32;;;;;;;0.60;0.30;;;8.00;52.10;;;;;;20900699;28;20032;-74
2021/03/20 14:54:33;;;;;;;6.03;0.20;;;8.00;51.90;;;;;;20914874;28;20048;-74
2021/03/20 15:04:33;;;;;;;0.10;0.10;;;7.90;51.80;;;;;;20917406;28;20041;-74
2021/03/20 15:14:37;;;;;;;0.10;0.10;;;7.90;51.70;;;;;;20897920;28;20033;-77
2021/03/20 15:24:38;;;;;;;1.45;1.30;;;8.00;51.80;;;;;;20914664;28;20403;-75
2021/03/20 15:34:40;;;;;;;0.40;0.30;;;8.00;51.80;;;;;;20896378;28;20028;-74
2021/03/20 15:44:41;;;;;;;0.32;0.22;;;8.00;52.00;;;;;;20897105;28;20053;-74
2021/03/20 15:54:41;;;;;;;3.47;0.55;;;8.00;52.00;;;;;;20895573;28;20476;-76
2021/03/20 16:04:43;;;;;;;0.17;0.17;;;8.20;51.90;;;;;;20831862;28;20296;-77
2021/03/20 16:14:46;;;;;;;0.70;0.55;;;8.20;51.60;;;;;;20838162;28;20032;-81
2021/03/20 16:24:46;;;;;;;0.25;0.25;;;8.10;51.90;;;;;;20848951;28;20028;-81
2021/03/20 16:34:48;;;;;;;0.30;0.20;;;8.10;52.10;;;;;;20923407;28;20036;-81
2021/03/20 16:44:49;;;;;;;0.20;0.15;;;8.00;52.20;;;;;;20891302;28;20304;-79
2021/03/20 16:54:50;;;;;;;3.42;0.35;;;7.90;52.40;;;;;;20840662;28;20032;-86
2021/03/20 17:04:52;;;;;;;0.17;0.10;;;8.00;52.60;;;;;;20903767;28;20037;-87
2021/03/20 17:14:53;;;;;;;0.20;0.20;;;8.00;52.90;;;;;;20884998;28;20088;-78
2021/03/20 17:24:54;;;;;;;1.05;0.38;;;8.00;52.90;;;;;;20899702;28;20053;-79
2021/03/20 17:34:55;;;;;;;4.50;0.75;;;8.00;53.10;;;;;;20897964;28;20052;-79
2021/03/20 17:44:58;;;;;;;3.00;0.40;;;8.00;53.30;;;;;;20888153;28;20033;-82
2021/03/20 17:54:58;;;;;;;1.13;0.47;;;8.00;53.40;;;;;;20894908;28;20055;-78
2021/03/20 18:05:02;;;;;;;0.57;0.57;;;8.00;53.60;;;;;;20839134;28;20087;-79
2021/03/20 18:15:04;;;;;;;0.47;0.30;;;8.00;53.80;;;;;;20848362;28;20047;-76
2021/03/20 18:25:12;;;;;;;0.52;0.20;;;8.00;54.00;;;;;;20810577;28;20639;-80
2021/03/20 18:35:14;;;;;;;0.17;0.17;;;8.00;54.20;;;;;;20894422;28;20507;-81
2021/03/20 18:45:15;;;;;;;0.80;0.40;;;7.90;54.40;;;;;;20897955;28;20029;-80
2021/03/20 18:55:16;;;;;;;0.32;0.32;;;7.90;54.50;;;;;;20844641;28;20034;-82
2021/03/20 19:05:20;;;;;;;0.20;0.20;;;8.00;54.70;;;;;;20843158;28;20097;-83
2021/03/20 19:15:24;;;;;;;0.27;0.20;;;7.90;54.80;;;;;;20844715;28;20052;-81
2021/03/20 19:25:26;;;;;;;0.63;0.20;;;7.90;55.00;;;;;;20902864;28;20360;-80
2021/03/20 19:35:28;;;;;;;0.25;0.25;;;8.00;55.10;;;;;;20919061;28;20086;-81
2021/03/20 19:45:29;;;;;;;2.53;0.30;;;8.00;55.30;;;;;;20874093;28;20376;-81
2021/03/20 19:55:36;;;;;;;0.80;0.50;;;8.00;55.40;;;;;;20816016;28;20061;-81
2021/03/20 20:05:36;;;;;;;0.70;0.43;;;7.90;55.40;;;;;;20818948;28;20045;-81
2021/03/20 20:15:39;;;;;;;0.60;0.40;;;7.90;55.60;;;;;;20834460;28;20045;-80
2021/03/20 20:25:42;;;;;;;0.20;0.20;;;8.00;55.70;;;;;;20833746;28;20507;-84
2021/03/20 20:35:44;;;;;;;0.15;0.15;;;8.00;55.80;;;;;;20819988;28;20094;-83
2021/03/20 20:45:47;;;;;;;1.35;0.57;;;7.90;55.90;;;;;;20836467;28;20036;-85
2021/03/20 20:55:49;;;;;;;0.82;0.80;;;7.90;56.00;;;;;;20832463;28;20491;-83
2021/03/20 21:05:50;;;;;;;2.35;0.40;;;7.90;56.10;;;;;;20862564;28;20032;-82
2021/03/20 21:15:51;;;;;;;0.63;0.40;;;7.90;56.10;;;;;;20859865;28;20039;-82
2021/03/20 21:25:53;;;;;;;0.50;0.45;;;7.90;56.30;;;;;;20853112;28;20288;-81
2021/03/20 21:35:55;;;;;;;0.57;0.50;;;7.90;56.40;;;;;;20861091;28;20034;-81
2021/03/20 21:45:56;;;;;;;1.25;0.63;;;7.90;56.50;;;;;;20846228;28;20033;-81
2021/03/20 21:55:57;;;;;;;0.68;0.47;;;7.90;56.80;;;;;;20866242;28;20468;-83
2021/03/20 22:05:58;;;;;;;0.33;0.27;;;7.90;56.90;;;;;;20847069;28;20087;-83
2021/03/20 22:16:00;;;;;;;0.73;0.20;;;7.90;57.20;;;;;;20856739;28;20304;-83
2021/03/20 22:26:01;;;;;;;0.68;0.57;;;7.90;57.40;;;;;;20882201;28;20311;-78
2021/03/20 22:36:02;;;;;;;2.03;1.25;;;8.00;57.80;;;;;;20886194;28;20078;-79
2021/03/20 22:46:08;;;;;;;3.38;0.80;;;8.00;58.10;;;;;;20861467;28;20041;-84
2021/03/20 22:56:09;;;;;;;3.55;0.55;;;8.00;58.40;;;;;;20884717;28;20041;-82
2021/03/20 23:06:10;;;;;;;1.60;0.63;;;8.00;58.70;;;;;;20895680;28;20470;-83
2021/03/20 23:16:23;;;;;;;0.68;0.47;;;8.00;59.10;;;;;;20875392;28;20108;-84
2021/03/20 23:26:32;;;;;;;0.70;0.55;;;8.00;59.40;;;;;;20885523;28;20040;-84
2021/03/20 23:36:33;;;;;;;0.93;0.82;;;8.00;59.80;;;;;;20891805;28;20033;-85
2021/03/20 23:46:39;;;;;;;2.10;0.63;;;8.00;60.10;;;;;;20906048;28;20387;-84
2021/03/20 23:56:42;;;;;;;0.23;0.20;;;8.00;60.50;;;;;;20889961;28;20044;-84
